Latest Coastal Weather Observations for Cairns

IDQ60701

Issued at 1:21 am EST Saturday 10 December 2016 (issued every 10 minutes, with the page automatically refreshed every 10 minutes)

About coastal observations | Map of coastal stations | Coastal observations for QLD | Marine services | Other Formats
Station Details ID: 031011 Name: CAIRNS AERO Lat: -16.87 Lon: 145.75 Height: 2.22 m
Data from the previous 72 hours. | See also: Recent months at Cairns
Date/Time
EST
Temp
°C
Wind Pressure Rain since
9am
mm
Weather Cloud Vis
km
Sea
Height
m
Swell
Dir  Spd
kts
Gust
kts
hPa Trend Height
m
Period
s
Dir
10/01:00am 25.3 SE 7 9 1010.2 - 0.0 - Mostly clear 10 - - - -
10/12:30am 25.0 NE 4 6 1010.6 - 0.0 - Mostly clear 10 - - - -
10/12:00am 24.8 CALM 0 1 1011.0 F 0.0 - Mostly clear 10 - - - -
 
Date/Time
EST
Temp
°C
Wind Pressure Rain since
9am
mm
Weather Cloud Vis
km
Sea
Height
m
Swell
Dir  Spd
kts
Gust
kts
hPa Trend Height
m
Period
s
Dir
09/11:30pm 25.3 SSE 5 6 1011.3 - 0.0 - Mostly clear 10 - - - -
09/11:00pm 25.2 SSE 5 6 1011.4 - 0.0 - Mostly clear 10 - - - -
09/10:30pm 25.7 SSE 4 6 1011.5 - 0.0 - Mostly clear 10 - - - -
09/10:00pm 26.0 S 4 6 1011.3 - 0.0 - Mostly clear 10 - - - -
09/09:30pm 25.8 SSE 5 7 1011.2 - 0.0 - Mostly clear 10 - - - -
09/09:00pm 26.5 SE 7 9 1010.8 R 0.0 - Mostly clear 10 - - - -
09/08:30pm 27.1 ESE 7 10 1010.8 - 0.0 - Mostly clear 10 - - - -
09/08:00pm 27.3 E 8 10 1010.4 - 0.0 - Mostly clear 10 - - - -
09/07:30pm 27.5 E 8 11 1010.1 - 0.0 - Mostly clear 10 - - - -
09/07:00pm 27.8 E 9 13 1009.8 - 0.0 - Mostly clear 10 - - - -
09/06:30pm 28.1 E 9 15 1009.4 - 0.0 - Mostly clear 10 - - - -
09/06:00pm 28.8 ENE 10 14 1008.8 R 0.0 - Mostly clear 10 - - - -
09/05:30pm 29.4 ENE 10 14 1008.6 - 0.0 - Mostly clear 10 - - - -
09/05:00pm 30.0 ENE 10 15 1008.5 - 0.0 - Mostly clear 10 - - - -
09/04:30pm 30.3 ENE 10 15 1008.4 - 0.0 - Mostly clear 10 - - - -
09/04:00pm 30.5 NE 10 16 1008.2 - 0.0 - Mostly clear 10 - - - -
09/03:30pm 30.1 NE 10 14 1008.1 - 0.0 - Mostly clear 10 - - - -
09/03:00pm 30.7 NE 10 17 1008.2 S 0.0 - Mostly clear 10 - - - -
09/02:30pm 30.1 NE 9 14 1008.4 - 0.0 - Mostly clear 10 - - - -
09/02:00pm 30.2 NNE 10 16 1008.7 - 0.0 - Mostly clear 10 - - - -
09/01:30pm 30.9 NE 11 15 1008.9 - 0.0 - Mostly clear 10 - - - -
09/01:00pm 31.1 NE 10 14 1009.3 - 0.0 - Mostly clear 10 - - - -
09/12:30pm 30.9 NE 11 16 1009.6 - 0.0 - Mostly clear 10 - - - -
09/12:00pm 31.1 NNE 10 14 1010.0 F 0.0 - Mostly clear 10 - - - -
09/11:30am 31.3 NE 9 14 1010.2 - 0.0 - Mostly clear 10 - - - -
09/11:00am 30.6 NE 9 13 1010.3 - 0.0 - Mostly clear 10 - - - -
09/10:30am 30.6 NE 9 16 1010.7 - 0.0 - Mostly clear 10 - - - -
09/10:00am 30.8 NE 9 11 1010.8 - 0.0 - Mostly clear 10 - - - -
09/09:30am 30.5 ESE 6 9 1010.8 - 0.0 - Mostly clear 10 - - - -
09/09:00am 29.5 E 6 8 1011.0 F 0.0 - Mostly clear 10 - - - -
09/08:30am 29.3 SE 5 9 1011.0 - 0.0 - Partly cloudy 10 - - - -
09/08:00am 28.5 ESE 5 8 1010.9 - 0.0 - Mostly clear 10 - - - -
09/07:30am 27.9 SE 6 7 1010.7 - 0.0 - Mostly clear 10 - - - -
09/07:00am 25.9 CALM 0 0 1010.7 - 0.0 - Mostly clear 10 - - - -
09/06:30am 24.1 CALM 0 0 1010.6 - 0.0 - Mostly clear 10 - - - -
09/06:00am 22.9 CALM 0 0 1010.1 R 0.0 - Mostly clear 10 - - - -
09/05:30am 23.0 SSE 4 6 1009.8 - 0.0 - Mostly clear 10 - - - -
09/05:00am 22.8 SSW 1 5 1009.4 - 0.0 - Mostly clear 10 - - - -
09/04:30am 23.0 SSE 4 5 1009.2 - 0.0 - Mostly clear 10 - - - -
09/04:00am 23.0 CALM 0 0 1009.0 - 0.0 - Mostly clear 10 - - - -
09/03:30am 23.7 CALM 0 0 1008.9 - 0.0 - Mostly clear 10 - - - -
09/03:00am 24.1 SSE 4 6 1009.0 R 0.0 - Mostly clear 10 - - - -
09/02:30am 24.5 SE 5 6 1009.1 - 0.0 - Mostly clear 10 - - - -
09/02:00am 24.8 SSE 5 6 1009.1 - 0.0 - Mostly clear 10 - - - -
09/01:30am 25.2 SSE 4 6 1009.2 - 0.0 - Mostly clear 10 - - - -
09/01:00am 24.8 S 4 5 1009.4 - 0.0 - Mostly clear 10 - - - -
09/12:30am 25.1 SSE 4 6 1009.8 - 0.0 - Mostly clear 10 - - - -
09/12:00am 25.4 SE 5 7 1010.2 F 0.0 - Mostly clear 10 - - - -
 
Date/Time
EST
Temp
°C
Wind Pressure Rain since
9am
mm
Weather Cloud Vis
km
Sea
Height
m
Swell
Dir  Spd
kts
Gust
kts
hPa Trend Height
m
Period
s
Dir
08/11:30pm 25.7 SSE 5 6 1010.6 - 0.0 - Mostly clear 10 - - - -
08/11:00pm 25.9 SSE 5 6 1010.9 - 0.0 - Mostly clear 10 - - - -
08/10:30pm 26.4 SE 4 6 1010.8 - 0.0 - Mostly clear 10 - - - -
08/10:00pm 26.1 SE 3 5 1010.7 - 0.0 - Mostly clear 10 - - - -
08/09:30pm 26.4 SE 6 8 1010.5 - 0.0 - Mostly clear 10 - - - -
08/09:00pm 27.1 E 5 7 1010.2 R 0.0 - Mostly clear 10 - - - -
08/08:30pm 27.5 E 8 10 1010.0 - 0.0 - Mostly clear 10 - - - -
08/08:00pm 27.7 E 7 9 1010.0 - 0.0 - Mostly clear 10 - - - -
08/07:30pm 27.7 ENE 7 9 1009.7 - 0.0 - Partly cloudy 10 - - - -
08/07:00pm 27.9 ENE 6 9 1009.3 - 0.0 - Partly cloudy 10 - - - -
08/06:30pm 27.9 NE 8 13 1008.9 - 0.0 - Mostly clear 10 - - - -
08/06:00pm 28.1 NE 8 11 1008.6 F 0.0 - Mostly clear 10 - - - -
08/05:30pm 28.8 NE 8 10 1008.4 - 0.0 - Mostly clear 10 - - - -
08/05:00pm 29.3 NE 9 11 1008.2 - 0.0 - Mostly clear 10 - - - -
08/04:30pm 29.1 NE 9 12 1008.2 - 0.0 - Mostly clear 10 - - - -
08/04:00pm 29.3 NE 9 13 1008.4 - 0.0 - Mostly clear 10 - - - -
08/03:30pm 29.9 NE 10 15 1008.3 - 0.0 - Mostly clear 10 - - - -
08/03:00pm 29.4 NE 9 14 1008.5 R 0.0 - Cloudy 10 - - - -
08/02:30pm 31.7 NE 10 15 1008.6 - 0.0 - Mostly clear 10 - - - -
08/02:00pm 31.2 ENE 10 14 1008.9 - 0.0 - Mostly clear 10 - - - -
08/01:30pm 30.7 NE 11 16 1009.2 - 0.0 - Mostly clear 10 - - - -
08/01:00pm 31.2 NE 12 16 1009.5 - 0.0 - Mostly clear 10 - - - -
08/12:30pm 31.0 NE 11 15 1009.7 - 0.0 - Mostly clear 10 - - - -
08/12:00pm 32.0 NE 10 15 1009.9 F 0.0 - Mostly clear 10 - - - -
08/11:30am 32.0 NE 11 14 1010.3 - 0.0 - Mostly clear 10 - - - -
08/11:00am 31.1 ENE 10 14 1010.6 - 0.0 - Mostly clear 10 - - - -
08/10:30am 29.0 E 9 13 1010.8 - 0.0 - Mostly clear 10 - - - -
08/10:00am 30.5 NE 9 14 1011.0 - 0.0 - Mostly clear 10 - - - -
08/09:30am 30.3 ENE 7 10 1011.0 - 0.0 - Mostly clear 10 - - - -
08/09:00am 29.3 E 6 8 1011.0 F 0.0 - Mostly clear 10 - - - -
08/08:30am 29.6 SSE 5 7 1011.0 - 0.0 - Mostly clear 10 - - - -
08/08:00am 28.6 SSE 7 10 1010.9 - 0.0 - Mostly clear 10 - - - -
08/07:30am 27.2 SSE 7 8 1010.9 - 0.0 - Mostly clear 10 - - - -
08/07:00am 25.7 ESE 8 10 1010.7 - 0.0 - Mostly clear 10 - - - -
08/06:30am 25.4 NW 3 5 1010.6 - 0.0 - Mostly clear 10 - - - -
08/06:00am 24.8 SE 5 7 1010.3 F 0.0 - Mostly clear 10 - - - -
08/05:30am 24.6 SE 6 7 1010.0 - 0.0 - Mostly clear 10 - - - -
08/05:00am 24.4 SSE 4 6 1009.8 - 0.0 - Mostly clear 10 - - - -
08/04:30am 24.8 CALM 0 0 1009.8 - 0.0 - Mostly clear 10 - - - -
08/04:00am 25.1 SE 7 10 1009.7 - 0.0 - Mostly clear 10 - - - -
08/03:30am 25.7 SSE 6 7 1009.6 - 0.0 - Mostly clear 10 - - - -
08/03:00am 25.2 CALM 0 0 1009.7 S 0.0 - Cloudy 10 - - - -
08/02:30am 25.7 SE 5 8 1009.8 - 0.0 - Mostly clear 10 - - - -
08/02:00am 25.9 SE 6 8 1009.9 - 0.0 - Mostly clear 10 - - - -
08/01:30am 26.3 SSE 2 6 1010.1 - 0.0 - Mostly clear 10 - - - -
08/01:00am 25.9 SE 5 6 1010.4 - 0.0 - Mostly clear 10 - - - -
08/12:30am 26.3 SSE 6 8 1010.9 - 0.0 - Mostly clear 10 - - - -
08/12:00am 26.7 SSE 5 7 1011.2 F 0.0 - Cloudy 10 - - - -
 
Date/Time
EST
Temp
°C
Wind Pressure Rain since
9am
mm
Weather Cloud Vis
km
Sea
Height
m
Swell
Dir  Spd
kts
Gust
kts
hPa Trend Height
m
Period
s
Dir
07/11:30pm 27.1 S 6 8 1011.3 - 0.0 - Mostly clear 10 - - - -
07/11:00pm 26.9 S 5 9 1011.5 - 0.0 - Mostly clear 10 - - - -
07/10:30pm 27.3 SSE 7 9 1011.6 - 0.0 - Mostly clear 10 - - - -
07/10:00pm 27.5 SE 6 8 1011.7 - 0.0 - Mostly clear 10 - - - -
07/09:30pm 27.4 SE 8 9 1011.5 - 0.0 - Mostly clear 10 - - - -
07/09:00pm 27.1 SE 8 11 1011.4 F 0.0 - Cloudy 10 - - - -
07/08:30pm 27.5 SSE 6 9 1011.2 - 0.0 - Mostly clear 10 - - - -
07/08:00pm 27.6 SSE 7 10 1011.1 - 0.0 - Mostly clear 10 - - - -
07/07:30pm 27.9 SSE 8 15 1011.1 - 0.0 - Mostly clear 10 - - - -
07/07:00pm 27.8 SE 14 18 1010.7 - 0.0 - Mostly clear 10 - - - -
07/06:30pm 28.4 SSE 11 15 1010.6 - 0.0 - Mostly clear 10 - - - -
07/06:00pm 29.0 SE 8 15 1010.5 R 0.0 - Partly cloudy 10 - - - -
07/05:30pm 29.7 E 12 15 1010.3 - 0.0 - Mostly clear 10 - - - -
07/05:00pm 30.8 ESE 12 16 1009.9 - 0.0 - Mostly clear 10 - - - -
07/04:30pm 31.3 E 14 18 1009.7 - 0.0 - Mostly clear 10 - - - -
07/04:00pm 31.5 E 12 15 1009.4 - 0.0 - Mostly clear 10 - - - -
07/03:30pm 31.5 ENE 12 16 1009.8 - 0.0 - Mostly clear 10 - - - -
07/03:00pm 31.9 ENE 13 16 1010.0 R 0.0 - Mostly clear 10 - - - -
07/02:30pm 31.5 ENE 14 17 1010.3 - 0.0 - Mostly clear 10 - - - -
07/02:00pm 32.7 NE 10 15 1010.3 - 0.0 - Mostly clear 10 - - - -
07/01:30pm 31.7 ENE 11 15 1010.8 - 0.0 - Mostly clear 10 - - - -
07/01:00pm 31.9 ENE 14 16 1011.1 - 0.0 - Mostly clear 10 - - - -
07/12:30pm 31.2 ENE 12 15 1011.2 - 0.0 - Mostly clear 10 - - - -
07/12:00pm 31.4 NE 11 14 1011.5 R 0.0 - Cloudy 10 - - - -
07/11:30am 31.4 NE 9 13 1011.6 - 0.0 - Mostly clear 10 - - - -
07/11:00am 31.9 NE 8 11 1011.8 - 0.0 - Mostly clear 10 - - - -
07/10:30am 31.4 NE 7 10 1012.0 - 0.0 - Mostly clear 10 - - - -
07/10:00am 31.3 E 7 9 1012.0 - 0.0 - Mostly clear 10 - - - -
07/09:30am 30.8 SE 8 11 1011.8 - 0.0 - Mostly clear 10 - - - -
07/09:00am 30.7 SSE 7 11 1011.7 F 0.0 - Mostly clear 10 - - - -
07/08:30am 29.7 SSE 9 12 1011.8 - 0.0 - Mostly clear 10 - - - -
07/08:00am 28.9 SSE 9 11 1011.8 - 0.0 - Mostly clear 10 - - - -
07/07:30am 28.2 SSE 9 11 1011.6 - 0.0 - Mostly clear 10 - - - -
07/07:00am 27.4 SSE 7 10 1011.9 - 0.0 - Mostly clear 10 - - - -
07/06:30am 26.4 SSE 7 9 1011.8 - 0.0 - Mostly clear 10 - - - -
07/06:00am 25.2 SSE 7 9 1011.4 R 0.0 - Mostly clear 10 - - - -
07/05:30am 24.9 SE 7 8 1010.9 - 0.0 - Mostly clear 10 - - - -
07/05:00am 25.0 ESE 7 8 1010.5 - 0.0 - Mostly clear 10 - - - -
07/04:30am 25.5 SSE 6 8 1010.1 - 0.0 - Mostly clear 10 - - - -
07/04:00am 25.4 SSE 6 8 1009.9 - 0.0 - Mostly clear 10 - - - -
07/03:30am 25.2 S 6 10 1009.7 - 0.0 - Mostly clear 10 - - - -
07/03:00am 25.6 S 6 9 1009.7 S 0.0 - Mostly clear 10 - - - -
07/02:30am 25.0 SSE 7 9 1010.0 - 0.0 - Mostly clear 10 - - - -
07/02:00am 25.0 SSE 6 9 1010.1 - 0.0 - Mostly clear 10 - - - -
07/01:30am 25.5 SSE 7 8 1010.2 - 0.0 - Mostly clear 10 - - - -

Other Formats:

Comma delimited format used in spreadsheet applications
http://www.bom.gov.au/fwo/IDQ60701/IDQ60701.94287.axf

JavaScript Object Notation format (JSON) in row-major order
http://www.bom.gov.au/fwo/IDQ60701/IDQ60701.94287.json